sensor_id;sensor_type;location;lat;lon;timestamp;P1;durP1;ratioP1;P2;durP2;ratioP2
51824;SDS011;37879;52.986;6.282;2023-02-04T00:01:39;29.83;;;5.88;;
51824;SDS011;37879;52.986;6.282;2023-02-04T00:04:05;26.85;;;6.82;;
51824;SDS011;37879;52.986;6.282;2023-02-04T00:06:31;23.20;;;6.00;;
51824;SDS011;37879;52.986;6.282;2023-02-04T00:08:56;27.52;;;5.22;;
51824;SDS011;37879;52.986;6.282;2023-02-04T00:11:22;30.52;;;6.40;;
51824;SDS011;37879;52.986;6.282;2023-02-04T00:13:47;30.33;;;5.68;;
51824;SDS011;37879;52.986;6.282;2023-02-04T00:16:13;34.13;;;7.25;;
51824;SDS011;37879;52.986;6.282;2023-02-04T00:18:38;26.50;;;5.32;;
51824;SDS011;37879;52.986;6.282;2023-02-04T00:21:04;35.55;;;5.57;;
51824;SDS011;37879;52.986;6.282;2023-02-04T00:23:30;23.70;;;5.32;;
51824;SDS011;37879;52.986;6.282;2023-02-04T00:25:55;26.40;;;5.85;;
51824;SDS011;37879;52.986;6.282;2023-02-04T00:28:21;24.38;;;6.55;;
51824;SDS011;37879;52.986;6.282;2023-02-04T00:30:47;30.58;;;7.35;;
51824;SDS011;37879;52.986;6.282;2023-02-04T00:33:12;18.63;;;5.55;;
51824;SDS011;37879;52.986;6.282;2023-02-04T00:35:38;27.05;;;6.03;;
51824;SDS011;37879;52.986;6.282;2023-02-04T00:38:04;30.70;;;6.80;;
51824;SDS011;37879;52.986;6.282;2023-02-04T00:40:30;29.48;;;7.50;;
51824;SDS011;37879;52.986;6.282;2023-02-04T00:42:57;19.10;;;5.25;;
51824;SDS011;37879;52.986;6.282;2023-02-04T00:45:23;32.35;;;6.18;;
51824;SDS011;37879;52.986;6.282;2023-02-04T00:47:48;27.33;;;7.18;;
51824;SDS011;37879;52.986;6.282;2023-02-04T00:50:14;30.55;;;6.35;;
51824;SDS011;37879;52.986;6.282;2023-02-04T00:52:40;24.50;;;5.90;;
51824;SDS011;37879;52.986;6.282;2023-02-04T00:55:05;32.78;;;7.03;;
51824;SDS011;37879;52.986;6.282;2023-02-04T00:57:32;29.00;;;6.85;;
51824;SDS011;37879;52.986;6.282;2023-02-04T00:59:58;26.02;;;6.45;;
51824;SDS011;37879;52.986;6.282;2023-02-04T01:02:24;25.92;;;5.57;;
51824;SDS011;37879;52.986;6.282;2023-02-04T01:04:49;26.98;;;7.20;;
51824;SDS011;37879;52.986;6.282;2023-02-04T01:07:15;27.70;;;6.15;;
51824;SDS011;37879;52.986;6.282;2023-02-04T01:09:41;25.73;;;6.63;;
51824;SDS011;37879;52.986;6.282;2023-02-04T01:12:06;21.17;;;6.20;;
51824;SDS011;37879;52.986;6.282;2023-02-04T01:14:32;24.90;;;5.55;;
51824;SDS011;37879;52.986;6.282;2023-02-04T01:16:58;29.27;;;7.10;;
51824;SDS011;37879;52.986;6.282;2023-02-04T01:19:23;32.80;;;7.38;;
51824;SDS011;37879;52.986;6.282;2023-02-04T01:21:49;29.83;;;6.32;;
51824;SDS011;37879;52.986;6.282;2023-02-04T01:24:15;26.77;;;7.68;;
51824;SDS011;37879;52.986;6.282;2023-02-04T01:26:41;31.67;;;6.00;;
51824;SDS011;37879;52.986;6.282;2023-02-04T01:29:06;26.15;;;5.47;;
51824;SDS011;37879;52.986;6.282;2023-02-04T01:31:32;31.27;;;6.72;;
51824;SDS011;37879;52.986;6.282;2023-02-04T01:33:58;30.38;;;6.38;;
51824;SDS011;37879;52.986;6.282;2023-02-04T01:36:25;23.65;;;6.22;;
51824;SDS011;37879;52.986;6.282;2023-02-04T01:38:51;35.97;;;7.13;;
51824;SDS011;37879;52.986;6.282;2023-02-04T01:41:17;34.63;;;6.50;;
51824;SDS011;37879;52.986;6.282;2023-02-04T01:43:44;28.45;;;6.53;;
51824;SDS011;37879;52.986;6.282;2023-02-04T01:46:10;31.15;;;7.55;;
51824;SDS011;37879;52.986;6.282;2023-02-04T01:48:36;23.10;;;4.97;;
51824;SDS011;37879;52.986;6.282;2023-02-04T01:51:04;30.30;;;6.82;;
51824;SDS011;37879;52.986;6.282;2023-02-04T01:53:31;38.10;;;6.53;;
51824;SDS011;37879;52.986;6.282;2023-02-04T01:55:57;33.20;;;7.18;;
51824;SDS011;37879;52.986;6.282;2023-02-04T01:58:23;26.77;;;7.15;;
51824;SDS011;37879;52.986;6.282;2023-02-04T02:00:49;32.90;;;7.45;;
51824;SDS011;37879;52.986;6.282;2023-02-04T02:03:15;25.90;;;6.15;;
51824;SDS011;37879;52.986;6.282;2023-02-04T02:05:48;30.67;;;6.45;;
51824;SDS011;37879;52.986;6.282;2023-02-04T02:08:16;37.83;;;8.30;;
51824;SDS011;37879;52.986;6.282;2023-02-04T02:10:43;23.02;;;6.15;;
51824;SDS011;37879;52.986;6.282;2023-02-04T02:13:16;36.60;;;7.43;;
51824;SDS011;37879;52.986;6.282;2023-02-04T02:15:43;36.03;;;7.60;;
51824;SDS011;37879;52.986;6.282;2023-02-04T02:18:09;26.13;;;5.97;;
51824;SDS011;37879;52.986;6.282;2023-02-04T02:20:34;19.67;;;5.25;;
51824;SDS011;37879;52.986;6.282;2023-02-04T02:25:45;29.17;;;5.78;;
51824;SDS011;37879;52.986;6.282;2023-02-04T02:28:13;35.55;;;6.90;;
51824;SDS011;37879;52.986;6.282;2023-02-04T02:30:40;29.67;;;6.75;;
51824;SDS011;37879;52.986;6.282;2023-02-04T02:33:09;31.90;;;7.20;;
51824;SDS011;37879;52.986;6.282;2023-02-04T02:35:40;22.20;;;5.25;;
51824;SDS011;37879;52.986;6.282;2023-02-04T02:38:08;24.90;;;6.00;;
51824;SDS011;37879;52.986;6.282;2023-02-04T02:40:35;28.95;;;6.88;;
51824;SDS011;37879;52.986;6.282;2023-02-04T02:43:01;31.73;;;5.80;;
51824;SDS011;37879;52.986;6.282;2023-02-04T02:45:27;28.50;;;6.50;;
51824;SDS011;37879;52.986;6.282;2023-02-04T02:47:56;35.58;;;6.43;;
51824;SDS011;37879;52.986;6.282;2023-02-04T02:50:25;25.73;;;5.38;;
51824;SDS011;37879;52.986;6.282;2023-02-04T02:52:52;32.05;;;7.38;;
51824;SDS011;37879;52.986;6.282;2023-02-04T02:55:19;36.97;;;7.95;;
51824;SDS011;37879;52.986;6.282;2023-02-04T02:57:47;26.63;;;5.10;;
51824;SDS011;37879;52.986;6.282;2023-02-04T03:00:22;31.95;;;7.20;;
51824;SDS011;37879;52.986;6.282;2023-02-04T03:05:27;29.27;;;5.90;;
51824;SDS011;37879;52.986;6.282;2023-02-04T03:07:55;24.13;;;7.07;;
51824;SDS011;37879;52.986;6.282;2023-02-04T03:10:21;25.30;;;5.82;;
51824;SDS011;37879;52.986;6.282;2023-02-04T03:12:47;23.30;;;5.35;;
51824;SDS011;37879;52.986;6.282;2023-02-04T03:15:12;28.08;;;6.82;;
51824;SDS011;37879;52.986;6.282;2023-02-04T03:17:39;29.02;;;6.75;;
51824;SDS011;37879;52.986;6.282;2023-02-04T03:20:05;25.65;;;7.03;;
51824;SDS011;37879;52.986;6.282;2023-02-04T03:22:31;27.52;;;6.70;;
51824;SDS011;37879;52.986;6.282;2023-02-04T03:24:57;32.33;;;8.35;;
51824;SDS011;37879;52.986;6.282;2023-02-04T03:27:23;19.83;;;5.03;;
51824;SDS011;37879;52.986;6.282;2023-02-04T03:29:49;19.73;;;5.03;;
51824;SDS011;37879;52.986;6.282;2023-02-04T03:32:16;25.67;;;5.80;;
51824;SDS011;37879;52.986;6.282;2023-02-04T03:34:42;27.92;;;6.40;;
51824;SDS011;37879;52.986;6.282;2023-02-04T03:37:07;34.28;;;8.25;;
51824;SDS011;37879;52.986;6.282;2023-02-04T03:39:33;19.35;;;4.53;;
51824;SDS011;37879;52.986;6.282;2023-02-04T03:41:59;31.92;;;5.60;;
51824;SDS011;37879;52.986;6.282;2023-02-04T03:44:24;23.05;;;5.55;;
51824;SDS011;37879;52.986;6.282;2023-02-04T03:46:51;26.98;;;5.95;;
51824;SDS011;37879;52.986;6.282;2023-02-04T03:49:20;17.75;;;4.20;;
51824;SDS011;37879;52.986;6.282;2023-02-04T03:51:46;28.38;;;5.57;;
51824;SDS011;37879;52.986;6.282;2023-02-04T03:54:11;31.33;;;5.60;;
51824;SDS011;37879;52.986;6.282;2023-02-04T03:56:37;35.50;;;9.05;;
51824;SDS011;37879;52.986;6.282;2023-02-04T03:59:03;20.95;;;6.07;;
51824;SDS011;37879;52.986;6.282;2023-02-04T04:01:28;16.67;;;4.93;;
51824;SDS011;37879;52.986;6.282;2023-02-04T04:03:54;32.97;;;6.93;;
51824;SDS011;37879;52.986;6.282;2023-02-04T04:06:20;29.25;;;6.65;;
51824;SDS011;37879;52.986;6.282;2023-02-04T04:08:45;21.92;;;4.75;;
51824;SDS011;37879;52.986;6.282;2023-02-04T04:11:11;31.15;;;6.70;;
51824;SDS011;37879;52.986;6.282;2023-02-04T04:13:37;22.33;;;5.63;;
51824;SDS011;37879;52.986;6.282;2023-02-04T04:16:02;33.95;;;6.93;;
51824;SDS011;37879;52.986;6.282;2023-02-04T04:18:29;24.33;;;6.45;;
51824;SDS011;37879;52.986;6.282;2023-02-04T04:20:56;25.60;;;6.25;;
51824;SDS011;37879;52.986;6.282;2023-02-04T04:23:22;23.58;;;5.70;;
51824;SDS011;37879;52.986;6.282;2023-02-04T04:25:48;29.15;;;5.50;;
51824;SDS011;37879;52.986;6.282;2023-02-04T04:28:14;25.67;;;5.35;;
51824;SDS011;37879;52.986;6.282;2023-02-04T04:30:39;22.50;;;5.10;;
51824;SDS011;37879;52.986;6.282;2023-02-04T04:33:05;26.25;;;5.13;;
51824;SDS011;37879;52.986;6.282;2023-02-04T04:35:30;26.77;;;6.15;;
51824;SDS011;37879;52.986;6.282;2023-02-04T04:37:57;25.40;;;6.53;;
51824;SDS011;37879;52.986;6.282;2023-02-04T04:40:22;25.92;;;5.40;;
51824;SDS011;37879;52.986;6.282;2023-02-04T04:42:48;33.92;;;6.95;;
51824;SDS011;37879;52.986;6.282;2023-02-04T04:45:13;30.42;;;7.07;;
51824;SDS011;37879;52.986;6.282;2023-02-04T04:47:39;32.65;;;7.25;;
51824;SDS011;37879;52.986;6.282;2023-02-04T04:50:05;27.80;;;6.03;;
51824;SDS011;37879;52.986;6.282;2023-02-04T04:52:31;26.33;;;6.22;;
51824;SDS011;37879;52.986;6.282;2023-02-04T04:54:56;23.77;;;4.80;;
51824;SDS011;37879;52.986;6.282;2023-02-04T04:57:22;24.77;;;6.38;;
51824;SDS011;37879;52.986;6.282;2023-02-04T04:59:48;24.70;;;5.47;;
51824;SDS011;37879;52.986;6.282;2023-02-04T05:02:13;30.15;;;5.75;;
51824;SDS011;37879;52.986;6.282;2023-02-04T05:04:39;34.88;;;7.80;;
51824;SDS011;37879;52.986;6.282;2023-02-04T05:07:04;19.55;;;5.13;;
51824;SDS011;37879;52.986;6.282;2023-02-04T05:09:30;28.35;;;6.45;;
51824;SDS011;37879;52.986;6.282;2023-02-04T05:11:55;24.30;;;5.75;;
51824;SDS011;37879;52.986;6.282;2023-02-04T05:14:21;25.33;;;5.63;;
51824;SDS011;37879;52.986;6.282;2023-02-04T05:16:47;29.67;;;6.80;;
51824;SDS011;37879;52.986;6.282;2023-02-04T05:19:12;28.60;;;6.43;;
51824;SDS011;37879;52.986;6.282;2023-02-04T05:21:38;31.20;;;6.85;;
51824;SDS011;37879;52.986;6.282;2023-02-04T05:24:04;26.15;;;6.75;;
51824;SDS011;37879;52.986;6.282;2023-02-04T05:26:30;41.22;;;8.05;;
51824;SDS011;37879;52.986;6.282;2023-02-04T05:28:57;21.55;;;5.47;;
51824;SDS011;37879;52.986;6.282;2023-02-04T05:31:24;22.20;;;5.75;;
51824;SDS011;37879;52.986;6.282;2023-02-04T05:33:50;27.50;;;5.70;;
51824;SDS011;37879;52.986;6.282;2023-02-04T05:36:15;27.30;;;7.03;;
51824;SDS011;37879;52.986;6.282;2023-02-04T05:38:42;26.85;;;6.63;;
51824;SDS011;37879;52.986;6.282;2023-02-04T05:41:07;28.10;;;7.28;;
51824;SDS011;37879;52.986;6.282;2023-02-04T05:43:33;37.42;;;6.38;;
51824;SDS011;37879;52.986;6.282;2023-02-04T05:45:59;21.55;;;5.57;;
51824;SDS011;37879;52.986;6.282;2023-02-04T05:48:25;28.73;;;6.65;;
51824;SDS011;37879;52.986;6.282;2023-02-04T05:50:51;24.20;;;6.68;;
51824;SDS011;37879;52.986;6.282;2023-02-04T05:53:17;23.25;;;5.88;;
51824;SDS011;37879;52.986;6.282;2023-02-04T05:55:42;23.95;;;5.55;;
51824;SDS011;37879;52.986;6.282;2023-02-04T05:58:08;39.97;;;7.72;;
51824;SDS011;37879;52.986;6.282;2023-02-04T06:00:34;27.50;;;5.93;;
51824;SDS011;37879;52.986;6.282;2023-02-04T06:02:59;33.50;;;5.72;;
51824;SDS011;37879;52.986;6.282;2023-02-04T06:05:25;18.98;;;5.22;;
51824;SDS011;37879;52.986;6.282;2023-02-04T06:07:50;24.63;;;6.45;;
51824;SDS011;37879;52.986;6.282;2023-02-04T06:10:16;26.38;;;5.90;;
51824;SDS011;37879;52.986;6.282;2023-02-04T06:12:42;18.23;;;5.50;;
51824;SDS011;37879;52.986;6.282;2023-02-04T06:15:07;25.58;;;7.93;;
51824;SDS011;37879;52.986;6.282;2023-02-04T06:17:34;33.33;;;6.80;;
51824;SDS011;37879;52.986;6.282;2023-02-04T06:19:59;31.25;;;5.47;;
51824;SDS011;37879;52.986;6.282;2023-02-04T06:22:25;22.67;;;4.72;;
51824;SDS011;37879;52.986;6.282;2023-02-04T06:24:51;26.73;;;6.28;;
51824;SDS011;37879;52.986;6.282;2023-02-04T06:27:16;20.25;;;4.35;;
51824;SDS011;37879;52.986;6.282;2023-02-04T06:29:47;25.02;;;6.03;;
51824;SDS011;37879;52.986;6.282;2023-02-04T06:32:17;26.48;;;6.82;;
51824;SDS011;37879;52.986;6.282;2023-02-04T06:34:44;28.35;;;5.68;;
51824;SDS011;37879;52.986;6.282;2023-02-04T06:37:09;36.30;;;6.65;;
51824;SDS011;37879;52.986;6.282;2023-02-04T06:39:35;20.35;;;5.57;;
51824;SDS011;37879;52.986;6.282;2023-02-04T06:42:01;27.15;;;5.70;;
51824;SDS011;37879;52.986;6.282;2023-02-04T06:44:27;16.02;;;4.65;;
51824;SDS011;37879;52.986;6.282;2023-02-04T06:46:52;24.23;;;7.03;;
51824;SDS011;37879;52.986;6.282;2023-02-04T06:49:18;25.20;;;5.53;;
51824;SDS011;37879;52.986;6.282;2023-02-04T06:51:43;25.35;;;6.07;;
51824;SDS011;37879;52.986;6.282;2023-02-04T06:54:09;26.08;;;5.78;;
51824;SDS011;37879;52.986;6.282;2023-02-04T06:56:35;34.28;;;5.78;;
51824;SDS011;37879;52.986;6.282;2023-02-04T06:59:01;23.95;;;5.20;;
51824;SDS011;37879;52.986;6.282;2023-02-04T07:01:27;20.25;;;4.47;;
51824;SDS011;37879;52.986;6.282;2023-02-04T07:03:52;24.38;;;5.68;;
51824;SDS011;37879;52.986;6.282;2023-02-04T07:06:18;19.30;;;5.30;;
51824;SDS011;37879;52.986;6.282;2023-02-04T07:08:43;32.17;;;7.47;;
51824;SDS011;37879;52.986;6.282;2023-02-04T07:11:11;34.67;;;5.70;;
51824;SDS011;37879;52.986;6.282;2023-02-04T07:13:36;22.63;;;5.78;;
51824;SDS011;37879;52.986;6.282;2023-02-04T07:16:02;21.58;;;5.15;;
51824;SDS011;37879;52.986;6.282;2023-02-04T07:18:27;27.15;;;5.82;;
51824;SDS011;37879;52.986;6.282;2023-02-04T07:20:53;33.13;;;6.15;;
51824;SDS011;37879;52.986;6.282;2023-02-04T07:23:19;34.00;;;8.05;;
51824;SDS011;37879;52.986;6.282;2023-02-04T07:25:44;27.13;;;7.70;;
51824;SDS011;37879;52.986;6.282;2023-02-04T07:28:10;32.15;;;8.48;;
51824;SDS011;37879;52.986;6.282;2023-02-04T07:30:35;30.42;;;8.65;;
51824;SDS011;37879;52.986;6.282;2023-02-04T07:33:01;27.67;;;7.15;;
51824;SDS011;37879;52.986;6.282;2023-02-04T07:35:27;28.10;;;6.47;;
51824;SDS011;37879;52.986;6.282;2023-02-04T07:37:52;18.98;;;5.60;;
51824;SDS011;37879;52.986;6.282;2023-02-04T07:40:18;19.02;;;5.80;;
51824;SDS011;37879;52.986;6.282;2023-02-04T07:42:45;17.52;;;4.95;;
51824;SDS011;37879;52.986;6.282;2023-02-04T07:45:11;24.55;;;5.57;;
51824;SDS011;37879;52.986;6.282;2023-02-04T07:47:37;18.80;;;3.90;;
51824;SDS011;37879;52.986;6.282;2023-02-04T07:50:02;18.13;;;3.35;;
51824;SDS011;37879;52.986;6.282;2023-02-04T07:52:28;16.75;;;4.38;;
51824;SDS011;37879;52.986;6.282;2023-02-04T07:54:54;19.02;;;4.15;;
51824;SDS011;37879;52.986;6.282;2023-02-04T07:57:19;20.30;;;4.35;;
51824;SDS011;37879;52.986;6.282;2023-02-04T07:59:45;19.48;;;4.30;;
51824;SDS011;37879;52.986;6.282;2023-02-04T08:02:11;18.70;;;4.78;;
51824;SDS011;37879;52.986;6.282;2023-02-04T08:04:37;18.13;;;3.25;;
51824;SDS011;37879;52.986;6.282;2023-02-04T08:07:03;16.52;;;3.50;;
51824;SDS011;37879;52.986;6.282;2023-02-04T08:09:29;22.80;;;3.78;;
51824;SDS011;37879;52.986;6.282;2023-02-04T08:11:54;20.50;;;4.60;;
51824;SDS011;37879;52.986;6.282;2023-02-04T08:14:20;17.77;;;3.83;;
51824;SDS011;37879;52.986;6.282;2023-02-04T08:16:46;14.52;;;3.85;;
51824;SDS011;37879;52.986;6.282;2023-02-04T08:19:11;27.63;;;4.68;;
51824;SDS011;37879;52.986;6.282;2023-02-04T08:21:43;13.98;;;3.65;;
51824;SDS011;37879;52.986;6.282;2023-02-04T08:24:09;14.05;;;4.10;;
51824;SDS011;37879;52.986;6.282;2023-02-04T08:26:35;25.55;;;4.32;;
51824;SDS011;37879;52.986;6.282;2023-02-04T08:29:00;10.30;;;3.17;;
51824;SDS011;37879;52.986;6.282;2023-02-04T08:31:26;24.17;;;4.05;;
51824;SDS011;37879;52.986;6.282;2023-02-04T08:33:51;15.02;;;3.50;;
51824;SDS011;37879;52.986;6.282;2023-02-04T08:36:17;14.93;;;3.50;;
51824;SDS011;37879;52.986;6.282;2023-02-04T08:38:42;19.42;;;4.90;;
51824;SDS011;37879;52.986;6.282;2023-02-04T08:41:08;13.57;;;3.10;;
51824;SDS011;37879;52.986;6.282;2023-02-04T08:43:34;15.57;;;3.78;;
51824;SDS011;37879;52.986;6.282;2023-02-04T08:46:01;25.15;;;5.47;;
51824;SDS011;37879;52.986;6.282;2023-02-04T08:48:27;14.48;;;3.10;;
51824;SDS011;37879;52.986;6.282;2023-02-04T08:50:52;15.27;;;3.50;;
51824;SDS011;37879;52.986;6.282;2023-02-04T08:53:18;15.25;;;3.03;;
51824;SDS011;37879;52.986;6.282;2023-02-04T08:55:43;16.48;;;4.05;;
51824;SDS011;37879;52.986;6.282;2023-02-04T08:58:09;14.80;;;3.47;;
51824;SDS011;37879;52.986;6.282;2023-02-04T09:00:35;12.93;;;3.17;;
51824;SDS011;37879;52.986;6.282;2023-02-04T09:03:00;11.30;;;3.00;;
51824;SDS011;37879;52.986;6.282;2023-02-04T09:05:26;11.40;;;3.10;;
51824;SDS011;37879;52.986;6.282;2023-02-04T09:07:51;15.20;;;3.42;;
51824;SDS011;37879;52.986;6.282;2023-02-04T09:10:17;15.07;;;2.75;;
51824;SDS011;37879;52.986;6.282;2023-02-04T09:12:43;22.65;;;3.70;;
51824;SDS011;37879;52.986;6.282;2023-02-04T09:15:09;10.70;;;2.92;;
51824;SDS011;37879;52.986;6.282;2023-02-04T09:17:36;14.95;;;3.17;;
51824;SDS011;37879;52.986;6.282;2023-02-04T09:20:03;11.52;;;2.92;;
51824;SDS011;37879;52.986;6.282;2023-02-04T09:22:29;15.57;;;3.17;;
51824;SDS011;37879;52.986;6.282;2023-02-04T09:24:55;8.55;;;2.67;;
51824;SDS011;37879;52.986;6.282;2023-02-04T09:27:21;14.60;;;2.42;;
51824;SDS011;37879;52.986;6.282;2023-02-04T09:29:46;17.23;;;2.85;;
51824;SDS011;37879;52.986;6.282;2023-02-04T09:32:12;15.55;;;3.10;;
51824;SDS011;37879;52.986;6.282;2023-02-04T09:34:38;13.05;;;2.63;;
51824;SDS011;37879;52.986;6.282;2023-02-04T09:37:03;11.35;;;2.70;;
51824;SDS011;37879;52.986;6.282;2023-02-04T09:39:29;11.98;;;3.05;;
51824;SDS011;37879;52.986;6.282;2023-02-04T09:41:55;8.35;;;2.95;;
51824;SDS011;37879;52.986;6.282;2023-02-04T09:44:21;12.95;;;2.92;;
51824;SDS011;37879;52.986;6.282;2023-02-04T09:46:51;9.52;;;2.97;;
51824;SDS011;37879;52.986;6.282;2023-02-04T09:49:19;14.27;;;3.13;;
51824;SDS011;37879;52.986;6.282;2023-02-04T09:51:44;11.70;;;2.03;;
51824;SDS011;37879;52.986;6.282;2023-02-04T09:54:13;12.52;;;3.13;;
51824;SDS011;37879;52.986;6.282;2023-02-04T09:56:40;12.32;;;2.55;;
51824;SDS011;37879;52.986;6.282;2023-02-04T09:59:10;9.15;;;2.72;;
51824;SDS011;37879;52.986;6.282;2023-02-04T10:01:37;12.13;;;2.97;;
51824;SDS011;37879;52.986;6.282;2023-02-04T10:04:03;13.15;;;3.13;;
51824;SDS011;37879;52.986;6.282;2023-02-04T10:06:29;10.02;;;2.70;;
51824;SDS011;37879;52.986;6.282;2023-02-04T10:08:54;12.68;;;3.08;;
51824;SDS011;37879;52.986;6.282;2023-02-04T10:11:21;6.57;;;2.00;;
51824;SDS011;37879;52.986;6.282;2023-02-04T10:13:50;10.27;;;2.40;;
51824;SDS011;37879;52.986;6.282;2023-02-04T10:18:46;12.48;;;3.20;;
51824;SDS011;37879;52.986;6.282;2023-02-04T10:21:16;7.47;;;2.30;;
51824;SDS011;37879;52.986;6.282;2023-02-04T10:23:50;7.38;;;1.90;;
51824;SDS011;37879;52.986;6.282;2023-02-04T10:26:18;6.18;;;1.30;;
51824;SDS011;37879;52.986;6.282;2023-02-04T10:28:45;8.85;;;1.38;;
51824;SDS011;37879;52.986;6.282;2023-02-04T10:31:29;8.27;;;1.50;;
51824;SDS011;37879;52.986;6.282;2023-02-04T10:36:51;8.05;;;1.67;;
51824;SDS011;37879;52.986;6.282;2023-02-04T10:39:26;8.25;;;2.55;;
51824;SDS011;37879;52.986;6.282;2023-02-04T10:44:24;6.45;;;1.58;;
51824;SDS011;37879;52.986;6.282;2023-02-04T10:47:02;8.20;;;1.17;;
51824;SDS011;37879;52.986;6.282;2023-02-04T10:49:52;6.05;;;1.70;;
51824;SDS011;37879;52.986;6.282;2023-02-04T10:52:40;8.05;;;2.28;;
51824;SDS011;37879;52.986;6.282;2023-02-04T10:55:12;5.72;;;1.65;;
51824;SDS011;37879;52.986;6.282;2023-02-04T10:57:40;3.45;;;1.33;;
51824;SDS011;37879;52.986;6.282;2023-02-04T11:00:21;7.47;;;1.90;;
51824;SDS011;37879;52.986;6.282;2023-02-04T11:02:58;4.95;;;1.30;;
51824;SDS011;37879;52.986;6.282;2023-02-04T11:05:29;8.82;;;2.15;;
51824;SDS011;37879;52.986;6.282;2023-02-04T11:07:56;7.22;;;2.20;;
51824;SDS011;37879;52.986;6.282;2023-02-04T11:10:23;7.20;;;1.38;;
51824;SDS011;37879;52.986;6.282;2023-02-04T11:20:47;14.20;;;3.63;;
51824;SDS011;37879;52.986;6.282;2023-02-04T11:25:41;5.00;;;1.50;;
51824;SDS011;37879;52.986;6.282;2023-02-04T11:28:25;14.27;;;2.53;;
51824;SDS011;37879;52.986;6.282;2023-02-04T11:31:00;11.68;;;2.40;;
51824;SDS011;37879;52.986;6.282;2023-02-04T11:33:38;5.78;;;1.42;;
51824;SDS011;37879;52.986;6.282;2023-02-04T11:36:06;8.27;;;2.47;;
51824;SDS011;37879;52.986;6.282;2023-02-04T11:38:35;6.38;;;1.52;;
51824;SDS011;37879;52.986;6.282;2023-02-04T11:41:01;12.80;;;2.28;;
51824;SDS011;37879;52.986;6.282;2023-02-04T11:43:27;11.27;;;1.95;;
51824;SDS011;37879;52.986;6.282;2023-02-04T11:46:02;8.18;;;2.75;;
51824;SDS011;37879;52.986;6.282;2023-02-04T11:48:37;6.85;;;1.70;;
51824;SDS011;37879;52.986;6.282;2023-02-04T11:51:08;6.65;;;1.95;;
51824;SDS011;37879;52.986;6.282;2023-02-04T11:53:40;6.75;;;2.00;;
51824;SDS011;37879;52.986;6.282;2023-02-04T11:56:05;7.75;;;1.67;;
51824;SDS011;37879;52.986;6.282;2023-02-04T11:58:31;5.15;;;1.63;;
51824;SDS011;37879;52.986;6.282;2023-02-04T12:00:57;16.58;;;3.20;;
51824;SDS011;37879;52.986;6.282;2023-02-04T12:05:56;6.03;;;1.70;;
51824;SDS011;37879;52.986;6.282;2023-02-04T12:13:48;5.43;;;1.80;;
51824;SDS011;37879;52.986;6.282;2023-02-04T12:16:16;16.75;;;2.65;;
51824;SDS011;37879;52.986;6.282;2023-02-04T12:18:42;12.27;;;2.10;;
51824;SDS011;37879;52.986;6.282;2023-02-04T12:21:08;5.75;;;1.95;;
51824;SDS011;37879;52.986;6.282;2023-02-04T12:23:34;8.05;;;2.08;;
51824;SDS011;37879;52.986;6.282;2023-02-04T12:25:59;15.38;;;2.92;;
51824;SDS011;37879;52.986;6.282;2023-02-04T12:28:25;8.10;;;1.67;;
51824;SDS011;37879;52.986;6.282;2023-02-04T12:30:54;10.82;;;2.50;;
51824;SDS011;37879;52.986;6.282;2023-02-04T12:33:20;10.50;;;2.90;;
51824;SDS011;37879;52.986;6.282;2023-02-04T12:35:49;11.35;;;2.25;;
51824;SDS011;37879;52.986;6.282;2023-02-04T12:38:15;5.63;;;1.92;;
51824;SDS011;37879;52.986;6.282;2023-02-04T12:40:40;5.50;;;1.90;;
51824;SDS011;37879;52.986;6.282;2023-02-04T12:43:06;7.90;;;2.08;;
51824;SDS011;37879;52.986;6.282;2023-02-04T12:45:32;15.45;;;2.38;;
51824;SDS011;37879;52.986;6.282;2023-02-04T12:47:58;9.50;;;2.30;;
51824;SDS011;37879;52.986;6.282;2023-02-04T12:50:24;13.50;;;2.60;;
51824;SDS011;37879;52.986;6.282;2023-02-04T12:52:57;7.00;;;1.60;;
51824;SDS011;37879;52.986;6.282;2023-02-04T12:55:24;6.57;;;1.58;;
51824;SDS011;37879;52.986;6.282;2023-02-04T12:57:51;9.00;;;2.08;;
51824;SDS011;37879;52.986;6.282;2023-02-04T13:00:18;6.85;;;2.10;;
51824;SDS011;37879;52.986;6.282;2023-02-04T13:02:45;7.70;;;2.00;;
51824;SDS011;37879;52.986;6.282;2023-02-04T13:05:11;5.32;;;1.88;;
51824;SDS011;37879;52.986;6.282;2023-02-04T13:07:38;6.90;;;1.33;;
51824;SDS011;37879;52.986;6.282;2023-02-04T13:10:07;5.93;;;1.35;;
51824;SDS011;37879;52.986;6.282;2023-02-04T13:12:34;11.25;;;2.42;;
51824;SDS011;37879;52.986;6.282;2023-02-04T13:14:59;9.45;;;1.65;;
51824;SDS011;37879;52.986;6.282;2023-02-04T13:17:25;7.00;;;1.50;;
51824;SDS011;37879;52.986;6.282;2023-02-04T13:19:51;8.55;;;1.80;;
51824;SDS011;37879;52.986;6.282;2023-02-04T13:22:16;7.00;;;1.67;;
51824;SDS011;37879;52.986;6.282;2023-02-04T13:24:42;6.57;;;1.67;;
51824;SDS011;37879;52.986;6.282;2023-02-04T13:27:08;12.20;;;1.85;;
51824;SDS011;37879;52.986;6.282;2023-02-04T13:29:33;18.08;;;2.33;;
51824;SDS011;37879;52.986;6.282;2023-02-04T13:31:59;4.28;;;1.42;;
51824;SDS011;37879;52.986;6.282;2023-02-04T13:34:25;8.65;;;1.65;;
51824;SDS011;37879;52.986;6.282;2023-02-04T13:36:50;5.45;;;1.55;;
51824;SDS011;37879;52.986;6.282;2023-02-04T13:39:16;12.93;;;2.92;;
51824;SDS011;37879;52.986;6.282;2023-02-04T13:41:41;5.45;;;1.40;;
51824;SDS011;37879;52.986;6.282;2023-02-04T13:44:07;11.30;;;2.58;;
51824;SDS011;37879;52.986;6.282;2023-02-04T13:46:33;6.60;;;2.10;;
51824;SDS011;37879;52.986;6.282;2023-02-04T13:48:59;7.97;;;1.70;;
51824;SDS011;37879;52.986;6.282;2023-02-04T13:51:24;9.77;;;2.10;;
51824;SDS011;37879;52.986;6.282;2023-02-04T13:53:50;6.25;;;1.70;;
51824;SDS011;37879;52.986;6.282;2023-02-04T13:56:16;6.90;;;1.80;;
51824;SDS011;37879;52.986;6.282;2023-02-04T13:58:41;6.60;;;1.60;;
51824;SDS011;37879;52.986;6.282;2023-02-04T14:01:12;10.95;;;2.00;;
51824;SDS011;37879;52.986;6.282;2023-02-04T14:03:38;6.97;;;1.88;;
51824;SDS011;37879;52.986;6.282;2023-02-04T14:06:05;5.35;;;1.38;;
51824;SDS011;37879;52.986;6.282;2023-02-04T14:08:31;6.80;;;2.35;;
51824;SDS011;37879;52.986;6.282;2023-02-04T14:10:57;6.95;;;1.58;;
51824;SDS011;37879;52.986;6.282;2023-02-04T14:13:23;5.75;;;1.92;;
51824;SDS011;37879;52.986;6.282;2023-02-04T14:15:48;4.53;;;1.88;;
51824;SDS011;37879;52.986;6.282;2023-02-04T14:18:14;10.70;;;2.22;;
51824;SDS011;37879;52.986;6.282;2023-02-04T14:20:40;4.53;;;1.10;;
51824;SDS011;37879;52.986;6.282;2023-02-04T14:23:06;8.85;;;1.55;;
51824;SDS011;37879;52.986;6.282;2023-02-04T14:25:32;6.78;;;1.77;;
51824;SDS011;37879;52.986;6.282;2023-02-04T14:27:58;6.78;;;1.20;;
51824;SDS011;37879;52.986;6.282;2023-02-04T14:30:24;3.67;;;1.45;;
51824;SDS011;37879;52.986;6.282;2023-02-04T14:32:52;6.90;;;2.13;;
51824;SDS011;37879;52.986;6.282;2023-02-04T14:35:18;9.32;;;2.28;;
51824;SDS011;37879;52.986;6.282;2023-02-04T14:37:44;6.65;;;1.40;;
51824;SDS011;37879;52.986;6.282;2023-02-04T14:40:10;4.60;;;1.38;;
51824;SDS011;37879;52.986;6.282;2023-02-04T14:42:37;9.65;;;1.83;;
51824;SDS011;37879;52.986;6.282;2023-02-04T14:45:04;4.50;;;1.23;;
51824;SDS011;37879;52.986;6.282;2023-02-04T14:47:31;9.18;;;1.52;;
51824;SDS011;37879;52.986;6.282;2023-02-04T14:49:57;5.30;;;1.40;;
51824;SDS011;37879;52.986;6.282;2023-02-04T14:52:23;5.35;;;1.20;;
51824;SDS011;37879;52.986;6.282;2023-02-04T14:54:48;6.57;;;1.60;;
51824;SDS011;37879;52.986;6.282;2023-02-04T14:57:14;4.82;;;1.30;;
51824;SDS011;37879;52.986;6.282;2023-02-04T14:59:40;4.50;;;1.17;;
51824;SDS011;37879;52.986;6.282;2023-02-04T15:02:05;7.38;;;1.85;;
51824;SDS011;37879;52.986;6.282;2023-02-04T15:04:31;5.93;;;1.38;;
51824;SDS011;37879;52.986;6.282;2023-02-04T15:06:57;6.65;;;1.30;;